sensor_id;sensor_type;location;lat;lon;timestamp;P1;durP1;ratioP1;P2;durP2;ratioP2
61393;SDS011;48555;50.952;-0.120;2023-01-24T00:00:28;16.13;;;10.50;;
61393;SDS011;48555;50.952;-0.120;2023-01-24T00:02:53;16.20;;;11.18;;
61393;SDS011;48555;50.952;-0.120;2023-01-24T00:05:18;17.90;;;11.15;;
61393;SDS011;48555;50.952;-0.120;2023-01-24T00:07:44;16.77;;;11.32;;
61393;SDS011;48555;50.952;-0.120;2023-01-24T00:10:10;13.90;;;10.55;;
61393;SDS011;48555;50.952;-0.120;2023-01-24T00:12:36;13.95;;;10.95;;
61393;SDS011;48555;50.952;-0.120;2023-01-24T00:15:01;15.73;;;10.20;;
61393;SDS011;48555;50.952;-0.120;2023-01-24T00:17:26;16.15;;;11.85;;
61393;SDS011;48555;50.952;-0.120;2023-01-24T00:19:52;17.55;;;12.65;;
61393;SDS011;48555;50.952;-0.120;2023-01-24T00:22:17;16.88;;;11.18;;
61393;SDS011;48555;50.952;-0.120;2023-01-24T00:24:43;13.68;;;10.52;;
61393;SDS011;48555;50.952;-0.120;2023-01-24T00:27:08;14.35;;;10.70;;
61393;SDS011;48555;50.952;-0.120;2023-01-24T00:29:33;16.17;;;11.23;;
61393;SDS011;48555;50.952;-0.120;2023-01-24T00:31:59;17.10;;;11.45;;
61393;SDS011;48555;50.952;-0.120;2023-01-24T00:34:24;15.43;;;10.80;;
61393;SDS011;48555;50.952;-0.120;2023-01-24T00:36:49;15.77;;;10.70;;
61393;SDS011;48555;50.952;-0.120;2023-01-24T00:39:14;17.83;;;10.75;;
61393;SDS011;48555;50.952;-0.120;2023-01-24T00:41:40;16.25;;;11.05;;
61393;SDS011;48555;50.952;-0.120;2023-01-24T00:44:05;17.08;;;11.30;;
61393;SDS011;48555;50.952;-0.120;2023-01-24T00:46:31;16.90;;;10.65;;
61393;SDS011;48555;50.952;-0.120;2023-01-24T00:48:56;15.77;;;11.40;;
61393;SDS011;48555;50.952;-0.120;2023-01-24T00:51:22;15.63;;;11.30;;
61393;SDS011;48555;50.952;-0.120;2023-01-24T00:53:47;17.25;;;11.40;;
61393;SDS011;48555;50.952;-0.120;2023-01-24T00:56:12;17.63;;;11.68;;
61393;SDS011;48555;50.952;-0.120;2023-01-24T00:58:38;14.85;;;10.75;;
61393;SDS011;48555;50.952;-0.120;2023-01-24T01:01:03;15.13;;;10.60;;
61393;SDS011;48555;50.952;-0.120;2023-01-24T01:03:29;13.77;;;10.13;;
61393;SDS011;48555;50.952;-0.120;2023-01-24T01:06:01;16.23;;;10.63;;
61393;SDS011;48555;50.952;-0.120;2023-01-24T01:08:29;17.48;;;10.65;;
61393;SDS011;48555;50.952;-0.120;2023-01-24T01:10:54;17.33;;;10.35;;
61393;SDS011;48555;50.952;-0.120;2023-01-24T01:13:19;15.88;;;10.85;;
61393;SDS011;48555;50.952;-0.120;2023-01-24T01:15:45;15.35;;;10.73;;
61393;SDS011;48555;50.952;-0.120;2023-01-24T01:18:10;17.83;;;10.25;;
61393;SDS011;48555;50.952;-0.120;2023-01-24T01:20:36;16.23;;;10.75;;
61393;SDS011;48555;50.952;-0.120;2023-01-24T01:23:01;14.73;;;10.20;;
61393;SDS011;48555;50.952;-0.120;2023-01-24T01:25:26;15.93;;;10.40;;
61393;SDS011;48555;50.952;-0.120;2023-01-24T01:27:52;15.02;;;11.00;;
61393;SDS011;48555;50.952;-0.120;2023-01-24T01:30:17;18.55;;;11.25;;
61393;SDS011;48555;50.952;-0.120;2023-01-24T01:32:43;17.50;;;10.88;;
61393;SDS011;48555;50.952;-0.120;2023-01-24T01:35:08;14.65;;;10.75;;
61393;SDS011;48555;50.952;-0.120;2023-01-24T01:37:34;15.10;;;10.38;;
61393;SDS011;48555;50.952;-0.120;2023-01-24T01:39:59;15.82;;;11.00;;
61393;SDS011;48555;50.952;-0.120;2023-01-24T01:42:24;14.63;;;10.45;;
61393;SDS011;48555;50.952;-0.120;2023-01-24T01:44:52;15.50;;;11.23;;
61393;SDS011;48555;50.952;-0.120;2023-01-24T01:47:21;14.52;;;10.93;;
61393;SDS011;48555;50.952;-0.120;2023-01-24T01:50:20;15.68;;;11.07;;
61393;SDS011;48555;50.952;-0.120;2023-01-24T01:52:53;14.02;;;10.65;;
61393;SDS011;48555;50.952;-0.120;2023-01-24T01:55:19;16.02;;;10.73;;
61393;SDS011;48555;50.952;-0.120;2023-01-24T01:57:49;15.25;;;11.00;;
61393;SDS011;48555;50.952;-0.120;2023-01-24T02:00:17;14.70;;;10.68;;
61393;SDS011;48555;50.952;-0.120;2023-01-24T02:02:46;15.18;;;10.38;;
61393;SDS011;48555;50.952;-0.120;2023-01-24T02:05:15;15.27;;;10.00;;
61393;SDS011;48555;50.952;-0.120;2023-01-24T02:07:56;17.13;;;10.80;;
61393;SDS011;48555;50.952;-0.120;2023-01-24T02:10:25;15.13;;;10.60;;
61393;SDS011;48555;50.952;-0.120;2023-01-24T02:13:12;14.30;;;9.75;;
61393;SDS011;48555;50.952;-0.120;2023-01-24T02:15:38;12.82;;;9.23;;
61393;SDS011;48555;50.952;-0.120;2023-01-24T02:18:22;13.32;;;9.73;;
61393;SDS011;48555;50.952;-0.120;2023-01-24T02:20:48;14.65;;;10.02;;
61393;SDS011;48555;50.952;-0.120;2023-01-24T02:26:17;15.57;;;10.02;;
61393;SDS011;48555;50.952;-0.120;2023-01-24T02:28:58;15.70;;;10.63;;
61393;SDS011;48555;50.952;-0.120;2023-01-24T02:31:26;17.25;;;9.95;;
61393;SDS011;48555;50.952;-0.120;2023-01-24T02:33:52;16.63;;;10.60;;
61393;SDS011;48555;50.952;-0.120;2023-01-24T02:36:19;13.88;;;9.70;;
61393;SDS011;48555;50.952;-0.120;2023-01-24T02:38:50;14.93;;;9.30;;
61393;SDS011;48555;50.952;-0.120;2023-01-24T02:41:22;15.40;;;9.75;;
61393;SDS011;48555;50.952;-0.120;2023-01-24T02:47:04;15.38;;;10.43;;
61393;SDS011;48555;50.952;-0.120;2023-01-24T02:49:30;14.18;;;9.35;;
61393;SDS011;48555;50.952;-0.120;2023-01-24T02:51:55;15.02;;;9.57;;
61393;SDS011;48555;50.952;-0.120;2023-01-24T02:54:39;14.65;;;9.05;;
61393;SDS011;48555;50.952;-0.120;2023-01-24T02:57:04;12.35;;;8.38;;
61393;SDS011;48555;50.952;-0.120;2023-01-24T02:59:49;13.57;;;9.00;;
61393;SDS011;48555;50.952;-0.120;2023-01-24T03:02:14;15.13;;;8.48;;
61393;SDS011;48555;50.952;-0.120;2023-01-24T03:04:40;12.52;;;8.65;;
61393;SDS011;48555;50.952;-0.120;2023-01-24T03:07:05;12.75;;;8.98;;
61393;SDS011;48555;50.952;-0.120;2023-01-24T03:09:30;13.45;;;9.02;;
61393;SDS011;48555;50.952;-0.120;2023-01-24T03:12:00;15.05;;;9.88;;
61393;SDS011;48555;50.952;-0.120;2023-01-24T03:14:45;12.52;;;8.15;;
61393;SDS011;48555;50.952;-0.120;2023-01-24T03:17:29;12.15;;;8.40;;
61393;SDS011;48555;50.952;-0.120;2023-01-24T03:20:14;13.70;;;8.88;;
61393;SDS011;48555;50.952;-0.120;2023-01-24T03:22:58;12.73;;;8.00;;
61393;SDS011;48555;50.952;-0.120;2023-01-24T03:25:41;11.50;;;8.38;;
61393;SDS011;48555;50.952;-0.120;2023-01-24T03:28:25;11.93;;;7.95;;
61393;SDS011;48555;50.952;-0.120;2023-01-24T03:31:09;11.93;;;8.30;;
61393;SDS011;48555;50.952;-0.120;2023-01-24T03:33:53;12.23;;;8.75;;
61393;SDS011;48555;50.952;-0.120;2023-01-24T03:36:37;10.93;;;7.30;;
61393;SDS011;48555;50.952;-0.120;2023-01-24T03:39:02;12.13;;;7.95;;
61393;SDS011;48555;50.952;-0.120;2023-01-24T03:41:46;11.52;;;7.30;;
61393;SDS011;48555;50.952;-0.120;2023-01-24T03:44:12;12.30;;;7.80;;
61393;SDS011;48555;50.952;-0.120;2023-01-24T03:46:37;12.73;;;7.82;;
61393;SDS011;48555;50.952;-0.120;2023-01-24T03:49:05;11.15;;;7.22;;
61393;SDS011;48555;50.952;-0.120;2023-01-24T03:51:31;12.00;;;7.78;;
61393;SDS011;48555;50.952;-0.120;2023-01-24T03:54:15;14.63;;;8.15;;
61393;SDS011;48555;50.952;-0.120;2023-01-24T03:56:40;11.50;;;7.90;;
61393;SDS011;48555;50.952;-0.120;2023-01-24T03:59:06;11.93;;;7.63;;
61393;SDS011;48555;50.952;-0.120;2023-01-24T04:01:31;11.63;;;7.82;;
61393;SDS011;48555;50.952;-0.120;2023-01-24T04:03:56;12.18;;;7.68;;
61393;SDS011;48555;50.952;-0.120;2023-01-24T04:06:22;12.27;;;7.80;;
61393;SDS011;48555;50.952;-0.120;2023-01-24T04:08:47;14.57;;;8.23;;
61393;SDS011;48555;50.952;-0.120;2023-01-24T04:11:12;12.20;;;8.15;;
61393;SDS011;48555;50.952;-0.120;2023-01-24T04:13:38;12.00;;;7.60;;
61393;SDS011;48555;50.952;-0.120;2023-01-24T04:16:04;13.60;;;8.25;;
61393;SDS011;48555;50.952;-0.120;2023-01-24T04:18:31;11.52;;;8.18;;
61393;SDS011;48555;50.952;-0.120;2023-01-24T04:21:00;15.20;;;8.85;;
61393;SDS011;48555;50.952;-0.120;2023-01-24T04:23:26;11.82;;;8.13;;
61393;SDS011;48555;50.952;-0.120;2023-01-24T04:25:52;12.68;;;8.55;;
61393;SDS011;48555;50.952;-0.120;2023-01-24T04:28:19;14.30;;;8.55;;
61393;SDS011;48555;50.952;-0.120;2023-01-24T04:30:45;12.63;;;8.02;;
61393;SDS011;48555;50.952;-0.120;2023-01-24T04:33:10;13.45;;;7.32;;
61393;SDS011;48555;50.952;-0.120;2023-01-24T04:35:36;11.43;;;7.88;;
61393;SDS011;48555;50.952;-0.120;2023-01-24T04:38:01;11.48;;;7.72;;
61393;SDS011;48555;50.952;-0.120;2023-01-24T04:40:27;10.95;;;7.35;;
61393;SDS011;48555;50.952;-0.120;2023-01-24T04:42:54;12.50;;;7.90;;
61393;SDS011;48555;50.952;-0.120;2023-01-24T04:45:21;11.85;;;7.47;;
61393;SDS011;48555;50.952;-0.120;2023-01-24T04:47:46;10.63;;;7.30;;
61393;SDS011;48555;50.952;-0.120;2023-01-24T04:50:11;11.35;;;7.45;;
61393;SDS011;48555;50.952;-0.120;2023-01-24T04:52:36;11.23;;;7.07;;
61393;SDS011;48555;50.952;-0.120;2023-01-24T04:55:02;11.63;;;8.00;;
61393;SDS011;48555;50.952;-0.120;2023-01-24T04:57:27;10.02;;;7.53;;
61393;SDS011;48555;50.952;-0.120;2023-01-24T04:59:53;11.95;;;7.35;;
61393;SDS011;48555;50.952;-0.120;2023-01-24T05:02:18;11.13;;;7.53;;
61393;SDS011;48555;50.952;-0.120;2023-01-24T05:04:43;11.63;;;8.45;;
61393;SDS011;48555;50.952;-0.120;2023-01-24T05:07:09;11.38;;;7.60;;
61393;SDS011;48555;50.952;-0.120;2023-01-24T05:09:34;11.68;;;7.88;;
61393;SDS011;48555;50.952;-0.120;2023-01-24T05:12:00;10.55;;;7.63;;
61393;SDS011;48555;50.952;-0.120;2023-01-24T05:14:25;10.52;;;7.45;;
61393;SDS011;48555;50.952;-0.120;2023-01-24T05:16:50;9.75;;;7.05;;
61393;SDS011;48555;50.952;-0.120;2023-01-24T05:19:16;11.32;;;7.68;;
61393;SDS011;48555;50.952;-0.120;2023-01-24T05:21:41;9.35;;;7.30;;
61393;SDS011;48555;50.952;-0.120;2023-01-24T05:24:06;10.70;;;7.50;;
61393;SDS011;48555;50.952;-0.120;2023-01-24T05:26:32;10.40;;;7.30;;
61393;SDS011;48555;50.952;-0.120;2023-01-24T05:28:57;10.68;;;7.72;;
61393;SDS011;48555;50.952;-0.120;2023-01-24T05:31:23;11.50;;;8.02;;
61393;SDS011;48555;50.952;-0.120;2023-01-24T05:33:48;10.90;;;8.77;;
61393;SDS011;48555;50.952;-0.120;2023-01-24T05:36:17;10.38;;;7.65;;
61393;SDS011;48555;50.952;-0.120;2023-01-24T05:38:45;11.18;;;7.55;;
61393;SDS011;48555;50.952;-0.120;2023-01-24T05:41:11;10.55;;;7.75;;
61393;SDS011;48555;50.952;-0.120;2023-01-24T05:43:40;10.30;;;7.80;;
61393;SDS011;48555;50.952;-0.120;2023-01-24T05:46:07;9.85;;;6.72;;
61393;SDS011;48555;50.952;-0.120;2023-01-24T05:48:35;9.80;;;7.55;;
61393;SDS011;48555;50.952;-0.120;2023-01-24T05:51:01;9.20;;;7.13;;
61393;SDS011;48555;50.952;-0.120;2023-01-24T05:53:32;9.82;;;7.30;;
61393;SDS011;48555;50.952;-0.120;2023-01-24T05:56:00;10.63;;;7.53;;
61393;SDS011;48555;50.952;-0.120;2023-01-24T05:58:28;9.65;;;7.70;;
61393;SDS011;48555;50.952;-0.120;2023-01-24T06:00:54;10.52;;;7.30;;
61393;SDS011;48555;50.952;-0.120;2023-01-24T06:03:20;12.25;;;8.60;;
61393;SDS011;48555;50.952;-0.120;2023-01-24T06:05:55;10.48;;;8.35;;
61393;SDS011;48555;50.952;-0.120;2023-01-24T06:08:21;12.73;;;9.00;;
61393;SDS011;48555;50.952;-0.120;2023-01-24T06:10:47;11.50;;;7.30;;
61393;SDS011;48555;50.952;-0.120;2023-01-24T06:13:12;11.13;;;7.03;;
61393;SDS011;48555;50.952;-0.120;2023-01-24T06:15:38;8.73;;;7.15;;
61393;SDS011;48555;50.952;-0.120;2023-01-24T06:18:04;14.07;;;7.78;;
61393;SDS011;48555;50.952;-0.120;2023-01-24T06:20:31;10.65;;;7.80;;
61393;SDS011;48555;50.952;-0.120;2023-01-24T06:23:06;11.02;;;8.20;;
61393;SDS011;48555;50.952;-0.120;2023-01-24T06:25:33;10.85;;;8.15;;
61393;SDS011;48555;50.952;-0.120;2023-01-24T06:27:59;11.43;;;8.85;;
61393;SDS011;48555;50.952;-0.120;2023-01-24T06:30:24;12.38;;;9.10;;
61393;SDS011;48555;50.952;-0.120;2023-01-24T06:32:59;11.07;;;8.88;;
61393;SDS011;48555;50.952;-0.120;2023-01-24T06:35:43;9.15;;;7.15;;
61393;SDS011;48555;50.952;-0.120;2023-01-24T06:38:28;10.38;;;7.40;;
61393;SDS011;48555;50.952;-0.120;2023-01-24T06:40:55;9.63;;;7.75;;
61393;SDS011;48555;50.952;-0.120;2023-01-24T06:43:22;9.25;;;6.20;;
61393;SDS011;48555;50.952;-0.120;2023-01-24T06:45:48;9.95;;;7.60;;
61393;SDS011;48555;50.952;-0.120;2023-01-24T06:48:13;10.70;;;7.45;;
61393;SDS011;48555;50.952;-0.120;2023-01-24T06:50:39;13.05;;;7.75;;
61393;SDS011;48555;50.952;-0.120;2023-01-24T06:53:04;11.30;;;8.40;;
61393;SDS011;48555;50.952;-0.120;2023-01-24T06:55:30;11.20;;;7.93;;
61393;SDS011;48555;50.952;-0.120;2023-01-24T06:57:56;10.48;;;7.65;;
61393;SDS011;48555;50.952;-0.120;2023-01-24T07:00:23;10.48;;;7.32;;
61393;SDS011;48555;50.952;-0.120;2023-01-24T07:02:56;13.07;;;8.20;;
61393;SDS011;48555;50.952;-0.120;2023-01-24T07:05:31;10.35;;;7.95;;
61393;SDS011;48555;50.952;-0.120;2023-01-24T07:07:56;11.50;;;7.72;;
61393;SDS011;48555;50.952;-0.120;2023-01-24T07:10:22;9.57;;;6.57;;
61393;SDS011;48555;50.952;-0.120;2023-01-24T07:12:47;9.02;;;6.90;;
61393;SDS011;48555;50.952;-0.120;2023-01-24T07:15:13;10.88;;;7.13;;
61393;SDS011;48555;50.952;-0.120;2023-01-24T07:17:38;14.30;;;7.75;;
61393;SDS011;48555;50.952;-0.120;2023-01-24T07:20:04;10.85;;;7.63;;
61393;SDS011;48555;50.952;-0.120;2023-01-24T07:22:30;10.15;;;6.93;;
61393;SDS011;48555;50.952;-0.120;2023-01-24T07:24:56;10.68;;;7.35;;
61393;SDS011;48555;50.952;-0.120;2023-01-24T07:27:22;8.88;;;6.70;;
61393;SDS011;48555;50.952;-0.120;2023-01-24T07:29:47;11.70;;;7.57;;
61393;SDS011;48555;50.952;-0.120;2023-01-24T07:32:12;11.38;;;7.32;;
61393;SDS011;48555;50.952;-0.120;2023-01-24T07:34:38;9.30;;;6.72;;
61393;SDS011;48555;50.952;-0.120;2023-01-24T07:37:05;10.88;;;7.32;;
61393;SDS011;48555;50.952;-0.120;2023-01-24T07:39:31;11.93;;;7.80;;
61393;SDS011;48555;50.952;-0.120;2023-01-24T07:41:57;11.93;;;7.57;;
61393;SDS011;48555;50.952;-0.120;2023-01-24T07:44:22;10.15;;;7.05;;
61393;SDS011;48555;50.952;-0.120;2023-01-24T07:46:47;11.60;;;7.15;;
61393;SDS011;48555;50.952;-0.120;2023-01-24T07:49:13;9.73;;;7.22;;
61393;SDS011;48555;50.952;-0.120;2023-01-24T07:51:38;11.90;;;7.97;;
61393;SDS011;48555;50.952;-0.120;2023-01-24T07:54:04;10.80;;;7.78;;
61393;SDS011;48555;50.952;-0.120;2023-01-24T07:56:30;11.02;;;7.93;;
61393;SDS011;48555;50.952;-0.120;2023-01-24T07:58:56;11.93;;;7.85;;
61393;SDS011;48555;50.952;-0.120;2023-01-24T08:01:22;10.57;;;7.72;;
61393;SDS011;48555;50.952;-0.120;2023-01-24T08:03:48;10.63;;;8.27;;
61393;SDS011;48555;50.952;-0.120;2023-01-24T08:06:14;12.02;;;7.55;;
61393;SDS011;48555;50.952;-0.120;2023-01-24T08:08:40;11.93;;;7.82;;
61393;SDS011;48555;50.952;-0.120;2023-01-24T08:11:05;9.25;;;7.10;;
61393;SDS011;48555;50.952;-0.120;2023-01-24T08:13:31;11.30;;;8.30;;
61393;SDS011;48555;50.952;-0.120;2023-01-24T08:15:56;11.27;;;7.85;;
61393;SDS011;48555;50.952;-0.120;2023-01-24T08:18:24;11.90;;;7.82;;
61393;SDS011;48555;50.952;-0.120;2023-01-24T08:20:53;11.68;;;7.82;;
61393;SDS011;48555;50.952;-0.120;2023-01-24T08:23:19;11.60;;;8.10;;
61393;SDS011;48555;50.952;-0.120;2023-01-24T08:25:45;11.43;;;7.90;;
61393;SDS011;48555;50.952;-0.120;2023-01-24T08:28:10;10.57;;;7.13;;
61393;SDS011;48555;50.952;-0.120;2023-01-24T08:30:35;11.77;;;7.80;;
61393;SDS011;48555;50.952;-0.120;2023-01-24T08:33:01;12.18;;;7.45;;
61393;SDS011;48555;50.952;-0.120;2023-01-24T08:35:28;11.35;;;7.10;;
61393;SDS011;48555;50.952;-0.120;2023-01-24T08:37:54;10.07;;;6.95;;
61393;SDS011;48555;50.952;-0.120;2023-01-24T08:40:19;10.85;;;7.65;;
61393;SDS011;48555;50.952;-0.120;2023-01-24T08:42:45;12.35;;;7.93;;
61393;SDS011;48555;50.952;-0.120;2023-01-24T08:45:10;10.68;;;7.40;;
61393;SDS011;48555;50.952;-0.120;2023-01-24T08:47:35;12.05;;;8.43;;
61393;SDS011;48555;50.952;-0.120;2023-01-24T08:50:01;12.32;;;7.47;;
61393;SDS011;48555;50.952;-0.120;2023-01-24T08:52:27;10.43;;;6.75;;
61393;SDS011;48555;50.952;-0.120;2023-01-24T08:54:53;11.65;;;7.03;;
61393;SDS011;48555;50.952;-0.120;2023-01-24T08:57:18;9.70;;;6.50;;
61393;SDS011;48555;50.952;-0.120;2023-01-24T08:59:43;9.65;;;6.18;;
61393;SDS011;48555;50.952;-0.120;2023-01-24T09:02:12;10.18;;;7.00;;
61393;SDS011;48555;50.952;-0.120;2023-01-24T09:04:38;9.75;;;6.55;;
61393;SDS011;48555;50.952;-0.120;2023-01-24T09:07:04;9.07;;;6.53;;
61393;SDS011;48555;50.952;-0.120;2023-01-24T09:09:29;9.93;;;6.05;;
61393;SDS011;48555;50.952;-0.120;2023-01-24T09:11:55;9.35;;;6.00;;
61393;SDS011;48555;50.952;-0.120;2023-01-24T09:14:20;10.23;;;6.63;;
61393;SDS011;48555;50.952;-0.120;2023-01-24T09:16:45;10.32;;;7.40;;
61393;SDS011;48555;50.952;-0.120;2023-01-24T09:19:11;9.73;;;6.95;;
61393;SDS011;48555;50.952;-0.120;2023-01-24T09:21:37;10.23;;;6.88;;
61393;SDS011;48555;50.952;-0.120;2023-01-24T09:24:03;10.77;;;7.22;;
61393;SDS011;48555;50.952;-0.120;2023-01-24T09:26:28;10.32;;;6.53;;
61393;SDS011;48555;50.952;-0.120;2023-01-24T09:28:54;11.52;;;6.50;;
61393;SDS011;48555;50.952;-0.120;2023-01-24T09:31:20;9.65;;;6.78;;
61393;SDS011;48555;50.952;-0.120;2023-01-24T09:33:45;12.70;;;6.82;;
61393;SDS011;48555;50.952;-0.120;2023-01-24T09:36:11;10.63;;;6.82;;
61393;SDS011;48555;50.952;-0.120;2023-01-24T09:38:36;9.60;;;6.28;;
61393;SDS011;48555;50.952;-0.120;2023-01-24T09:41:10;8.75;;;6.28;;
61393;SDS011;48555;50.952;-0.120;2023-01-24T09:46:45;9.32;;;5.93;;
61393;SDS011;48555;50.952;-0.120;2023-01-24T09:51:48;9.95;;;6.93;;
61393;SDS011;48555;50.952;-0.120;2023-01-24T09:55:19;10.25;;;6.78;;
61393;SDS011;48555;50.952;-0.120;2023-01-24T09:57:30;12.15;;;6.93;;
61393;SDS011;48555;50.952;-0.120;2023-01-24T10:00:14;9.68;;;6.57;;
61393;SDS011;48555;50.952;-0.120;2023-01-24T10:02:44;10.50;;;6.03;;
61393;SDS011;48555;50.952;-0.120;2023-01-24T10:05:13;10.15;;;6.07;;
61393;SDS011;48555;50.952;-0.120;2023-01-24T10:07:47;7.53;;;5.43;;
61393;SDS011;48555;50.952;-0.120;2023-01-24T10:10:38;8.70;;;6.15;;
61393;SDS011;48555;50.952;-0.120;2023-01-24T10:16:26;8.68;;;5.50;;
61393;SDS011;48555;50.952;-0.120;2023-01-24T10:22:12;7.38;;;5.50;;
61393;SDS011;48555;50.952;-0.120;2023-01-24T10:24:57;9.43;;;5.40;;
61393;SDS011;48555;50.952;-0.120;2023-01-24T10:27:30;8.85;;;5.65;;
61393;SDS011;48555;50.952;-0.120;2023-01-24T10:29:58;7.53;;;5.03;;
61393;SDS011;48555;50.952;-0.120;2023-01-24T10:32:31;8.30;;;5.68;;
61393;SDS011;48555;50.952;-0.120;2023-01-24T10:35:01;8.20;;;6.07;;
61393;SDS011;48555;50.952;-0.120;2023-01-24T10:37:37;8.00;;;5.32;;
61393;SDS011;48555;50.952;-0.120;2023-01-24T10:40:12;9.98;;;5.70;;
61393;SDS011;48555;50.952;-0.120;2023-01-24T10:42:39;7.97;;;5.65;;
61393;SDS011;48555;50.952;-0.120;2023-01-24T10:49:01;9.55;;;5.20;;
61393;SDS011;48555;50.952;-0.120;2023-01-24T10:53:36;10.88;;;6.80;;
61393;SDS011;48555;50.952;-0.120;2023-01-24T10:56:02;9.27;;;6.03;;
61393;SDS011;48555;50.952;-0.120;2023-01-24T10:58:40;10.20;;;6.30;;
61393;SDS011;48555;50.952;-0.120;2023-01-24T11:01:15;10.18;;;6.47;;
61393;SDS011;48555;50.952;-0.120;2023-01-24T11:03:43;11.85;;;6.82;;
61393;SDS011;48555;50.952;-0.120;2023-01-24T11:06:24;10.07;;;6.38;;
61393;SDS011;48555;50.952;-0.120;2023-01-24T11:09:01;9.95;;;6.63;;
61393;SDS011;48555;50.952;-0.120;2023-01-24T11:11:43;8.98;;;6.00;;
61393;SDS011;48555;50.952;-0.120;2023-01-24T11:14:12;8.27;;;5.43;;
61393;SDS011;48555;50.952;-0.120;2023-01-24T11:16:41;9.98;;;5.88;;
61393;SDS011;48555;50.952;-0.120;2023-01-24T11:19:20;8.35;;;5.57;;
61393;SDS011;48555;50.952;-0.120;2023-01-24T11:21:50;7.25;;;5.40;;
61393;SDS011;48555;50.952;-0.120;2023-01-24T11:24:17;8.13;;;5.30;;
61393;SDS011;48555;50.952;-0.120;2023-01-24T11:26:56;11.80;;;6.70;;
61393;SDS011;48555;50.952;-0.120;2023-01-24T11:29:39;11.80;;;6.07;;
61393;SDS011;48555;50.952;-0.120;2023-01-24T11:32:19;10.48;;;6.57;;
61393;SDS011;48555;50.952;-0.120;2023-01-24T11:34:58;9.27;;;5.97;;
61393;SDS011;48555;50.952;-0.120;2023-01-24T12:02:43;9.40;;;6.50;;
61393;SDS011;48555;50.952;-0.120;2023-01-24T12:13:32;9.52;;;6.38;;
61393;SDS011;48555;50.952;-0.120;2023-01-24T12:16:15;10.85;;;6.38;;
61393;SDS011;48555;50.952;-0.120;2023-01-24T12:22:05;8.50;;;6.70;;
61393;SDS011;48555;50.952;-0.120;2023-01-24T12:24:41;10.27;;;6.30;;
61393;SDS011;48555;50.952;-0.120;2023-01-24T12:27:15;9.68;;;7.13;;
61393;SDS011;48555;50.952;-0.120;2023-01-24T12:32:31;11.60;;;7.70;;
61393;SDS011;48555;50.952;-0.120;2023-01-24T12:35:17;8.45;;;6.18;;
61393;SDS011;48555;50.952;-0.120;2023-01-24T12:37:55;9.82;;;6.05;;
61393;SDS011;48555;50.952;-0.120;2023-01-24T12:51:30;8.63;;;5.88;;
61393;SDS011;48555;50.952;-0.120;2023-01-24T12:59:44;8.68;;;5.90;;
61393;SDS011;48555;50.952;-0.120;2023-01-24T13:12:43;9.10;;;5.95;;
61393;SDS011;48555;50.952;-0.120;2023-01-24T13:15:26;9.68;;;5.93;;
61393;SDS011;48555;50.952;-0.120;2023-01-24T13:23:55;8.65;;;6.38;;
61393;SDS011;48555;50.952;-0.120;2023-01-24T13:26:49;9.05;;;6.35;;
61393;SDS011;48555;50.952;-0.120;2023-01-24T13:32:15;7.68;;;5.70;;
61393;SDS011;48555;50.952;-0.120;2023-01-24T13:34:47;8.57;;;5.88;;
61393;SDS011;48555;50.952;-0.120;2023-01-24T13:37:20;9.10;;;5.38;;
61393;SDS011;48555;50.952;-0.120;2023-01-24T13:39:58;8.18;;;6.20;;
61393;SDS011;48555;50.952;-0.120;2023-01-24T13:42:44;9.38;;;6.25;;
61393;SDS011;48555;50.952;-0.120;2023-01-24T13:45:55;8.15;;;6.20;;
61393;SDS011;48555;50.952;-0.120;2023-01-24T13:48:01;8.15;;;5.80;;
61393;SDS011;48555;50.952;-0.120;2023-01-24T13:51:21;9.75;;;6.45;;
61393;SDS011;48555;50.952;-0.120;2023-01-24T13:56:30;8.30;;;6.30;;
61393;SDS011;48555;50.952;-0.120;2023-01-24T13:58:55;8.43;;;6.05;;
61393;SDS011;48555;50.952;-0.120;2023-01-24T14:01:22;7.88;;;5.88;;
61393;SDS011;48555;50.952;-0.120;2023-01-24T14:03:56;9.13;;;6.15;;
61393;SDS011;48555;50.952;-0.120;2023-01-24T14:06:24;8.23;;;5.70;;
61393;SDS011;48555;50.952;-0.120;2023-01-24T14:08:58;7.97;;;6.25;;
61393;SDS011;48555;50.952;-0.120;2023-01-24T14:11:29;9.70;;;6.25;;
61393;SDS011;48555;50.952;-0.120;2023-01-24T14:14:02;8.00;;;6.28;;
61393;SDS011;48555;50.952;-0.120;2023-01-24T14:19:17;7.85;;;6.00;;
61393;SDS011;48555;50.952;-0.120;2023-01-24T14:21:47;7.57;;;5.70;;
61393;SDS011;48555;50.952;-0.120;2023-01-24T14:26:51;8.05;;;5.90;;
61393;SDS011;48555;50.952;-0.120;2023-01-24T14:29:18;6.47;;;4.18;;
61393;SDS011;48555;50.952;-0.120;2023-01-24T14:31:48;7.20;;;5.43;;
61393;SDS011;48555;50.952;-0.120;2023-01-24T14:37:12;8.35;;;6.50;;
61393;SDS011;48555;50.952;-0.120;2023-01-24T14:39:42;9.15;;;5.88;;
61393;SDS011;48555;50.952;-0.120;2023-01-24T14:42:14;7.88;;;5.63;;
61393;SDS011;48555;50.952;-0.120;2023-01-24T14:44:54;9.13;;;6.85;;
61393;SDS011;48555;50.952;-0.120;2023-01-24T14:47:24;8.88;;;6.38;;
61393;SDS011;48555;50.952;-0.120;2023-01-24T14:49:55;8.90;;;6.22;;
61393;SDS011;48555;50.952;-0.120;2023-01-24T14:52:23;8.70;;;6.20;;
61393;SDS011;48555;50.952;-0.120;2023-01-24T14:54:53;7.78;;;6.15;;
61393;SDS011;48555;50.952;-0.120;2023-01-24T15:00:10;8.63;;;6.07;;
61393;SDS011;48555;50.952;-0.120;2023-01-24T15:02:54;9.68;;;6.75;;
61393;SDS011;48555;50.952;-0.120;2023-01-24T15:05:28;13.40;;;8.43;;
61393;SDS011;48555;50.952;-0.120;2023-01-24T15:07:56;13.60;;;8.25;;
61393;SDS011;48555;50.952;-0.120;2023-01-24T15:10:24;9.85;;;7.32;;
61393;SDS011;48555;50.952;-0.120;2023-01-24T15:12:51;11.00;;;6.85;;
61393;SDS011;48555;50.952;-0.120;2023-01-24T15:15:19;12.82;;;7.60;;
61393;SDS011;48555;50.952;-0.120;2023-01-24T15:17:45;10.27;;;7.38;;
61393;SDS011;48555;50.952;-0.120;2023-01-24T15:20:14;11.65;;;7.35;;
61393;SDS011;48555;50.952;-0.120;2023-01-24T15:22:43;11.32;;;7.82;;
61393;SDS011;48555;50.952;-0.120;2023-01-24T15:25:17;11.85;;;8.10;;
61393;SDS011;48555;50.952;-0.120;2023-01-24T15:27:44;9.35;;;7.13;;
61393;SDS011;48555;50.952;-0.120;2023-01-24T15:32:46;10.32;;;7.53;;
61393;SDS011;48555;50.952;-0.120;2023-01-24T15:35:37;9.77;;;7.72;;
61393;SDS011;48555;50.952;-0.120;2023-01-24T15:40:30;9.07;;;6.45;;
61393;SDS011;48555;50.952;-0.120;2023-01-24T15:42:57;8.95;;;6.82;;
61393;SDS011;48555;50.952;-0.120;2023-01-24T15:45:49;10.88;;;7.28;;
61393;SDS011;48555;50.952;-0.120;2023-01-24T15:48:37;8.65;;;7.05;;
61393;SDS011;48555;50.952;-0.120;2023-01-24T15:51:03;9.60;;;7.00;;
61393;SDS011;48555;50.952;-0.120;2023-01-24T15:53:34;11.77;;;8.07;;
61393;SDS011;48555;50.952;-0.120;2023-01-24T15:56:01;11.07;;;7.82;;
61393;SDS011;48555;50.952;-0.120;2023-01-24T15:58:29;10.73;;;8.38;;
61393;SDS011;48555;50.952;-0.120;2023-01-24T16:00:57;9.82;;;7.40;;
61393;SDS011;48555;50.952;-0.120;2023-01-24T16:03:24;10.18;;;7.45;;
61393;SDS011;48555;50.952;-0.120;2023-01-24T16:05:50;10.95;;;7.63;;
61393;SDS011;48555;50.952;-0.120;2023-01-24T16:08:15;11.13;;;8.00;;
61393;SDS011;48555;50.952;-0.120;2023-01-24T16:10:40;10.15;;;7.38;;
61393;SDS011;48555;50.952;-0.120;2023-01-24T16:13:28;10.52;;;8.02;;
61393;SDS011;48555;50.952;-0.120;2023-01-24T16:15:55;10.77;;;7.68;;
61393;SDS011;48555;50.952;-0.120;2023-01-24T16:18:21;11.05;;;8.30;;
61393;SDS011;48555;50.952;-0.120;2023-01-24T16:20:47;11.85;;;8.13;;
61393;SDS011;48555;50.952;-0.120;2023-01-24T16:23:12;11.90;;;8.50;;
61393;SDS011;48555;50.952;-0.120;2023-01-24T16:25:38;11.52;;;8.63;;
61393;SDS011;48555;50.952;-0.120;2023-01-24T16:28:03;11.50;;;8.27;;
61393;SDS011;48555;50.952;-0.120;2023-01-24T16:30:29;11.98;;;8.45;;
61393;SDS011;48555;50.952;-0.120;2023-01-24T16:32:55;14.52;;;8.65;;
61393;SDS011;48555;50.952;-0.120;2023-01-24T16:35:21;12.63;;;9.27;;